sensor_id;sensor_type;location;lat;lon;timestamp;temperature;humidity
69598;SHT31;70000;51.176;-115.568;2024-03-23T00:54:07;-2.53;68.60
69598;SHT31;70000;51.176;-115.568;2024-03-23T00:56:36;-2.55;68.79
69598;SHT31;70000;51.176;-115.568;2024-03-23T00:59:05;-2.56;69.17
69598;SHT31;70000;51.176;-115.568;2024-03-23T01:01:33;-2.46;71.65
69598;SHT31;70000;51.176;-115.568;2024-03-23T01:04:02;-2.39;71.93
69598;SHT31;70000;51.176;-115.568;2024-03-23T01:06:31;-2.38;72.16
69598;SHT31;70000;51.176;-115.568;2024-03-23T01:09:00;-2.36;72.69
69598;SHT31;70000;51.176;-115.568;2024-03-23T01:11:30;-2.35;72.79
69598;SHT31;70000;51.176;-115.568;2024-03-23T01:13:58;-2.30;73.32
69598;SHT31;70000;51.176;-115.568;2024-03-23T01:16:29;-2.28;72.79
69598;SHT31;70000;51.176;-115.568;2024-03-23T01:18:58;-2.35;72.28
69598;SHT31;70000;51.176;-115.568;2024-03-23T01:21:47;-2.45;71.57
69598;SHT31;70000;51.176;-115.568;2024-03-23T01:24:17;-2.43;73.34
69598;SHT31;70000;51.176;-115.568;2024-03-23T01:26:46;-2.46;72.23
69598;SHT31;70000;51.176;-115.568;2024-03-23T01:29:15;-2.59;72.00
69598;SHT31;70000;51.176;-115.568;2024-03-23T01:31:44;-2.66;71.67
69598;SHT31;70000;51.176;-115.568;2024-03-23T01:34:15;-2.76;71.48
69598;SHT31;70000;51.176;-115.568;2024-03-23T01:36:44;-2.84;72.33
69598;SHT31;70000;51.176;-115.568;2024-03-23T01:39:13;-2.94;74.16
69598;SHT31;70000;51.176;-115.568;2024-03-23T01:41:45;-3.00;74.04
69598;SHT31;70000;51.176;-115.568;2024-03-23T01:44:18;-3.04;72.90
69598;SHT31;70000;51.176;-115.568;2024-03-23T01:46:47;-3.06;72.95
69598;SHT31;70000;51.176;-115.568;2024-03-23T01:49:17;-3.08;72.87
69598;SHT31;70000;51.176;-115.568;2024-03-23T01:51:47;-3.11;71.83
69598;SHT31;70000;51.176;-115.568;2024-03-23T01:54:23;-3.22;71.48
69598;SHT31;70000;51.176;-115.568;2024-03-23T01:56:53;-3.33;71.00
69598;SHT31;70000;51.176;-115.568;2024-03-23T01:59:24;-3.41;71.04
69598;SHT31;70000;51.176;-115.568;2024-03-23T02:01:53;-3.47;71.30
69598;SHT31;70000;51.176;-115.568;2024-03-23T02:04:22;-3.52;71.40
69598;SHT31;70000;51.176;-115.568;2024-03-23T02:10:03;-3.52;72.90
69598;SHT31;70000;51.176;-115.568;2024-03-23T02:12:41;-3.56;72.60
69598;SHT31;70000;51.176;-115.568;2024-03-23T02:18:22;-3.77;72.65
69598;SHT31;70000;51.176;-115.568;2024-03-23T02:21:32;-3.86;73.07
69598;SHT31;70000;51.176;-115.568;2024-03-23T02:24:03;-3.91;73.17
69598;SHT31;70000;51.176;-115.568;2024-03-23T02:26:37;-3.94;72.91
69598;SHT31;70000;51.176;-115.568;2024-03-23T02:29:05;-4.01;72.33
69598;SHT31;70000;51.176;-115.568;2024-03-23T02:31:35;-4.05;73.06
69598;SHT31;70000;51.176;-115.568;2024-03-23T02:34:06;-4.08;72.95
69598;SHT31;70000;51.176;-115.568;2024-03-23T02:36:35;-4.03;73.47
69598;SHT31;70000;51.176;-115.568;2024-03-23T02:39:03;-3.98;74.31
69598;SHT31;70000;51.176;-115.568;2024-03-23T02:41:32;-3.92;75.06
69598;SHT31;70000;51.176;-115.568;2024-03-23T02:44:00;-3.85;75.67
69598;SHT31;70000;51.176;-115.568;2024-03-23T02:46:31;-3.77;76.33
69598;SHT31;70000;51.176;-115.568;2024-03-23T02:49:00;-3.66;77.09
69598;SHT31;70000;51.176;-115.568;2024-03-23T02:51:29;-3.66;76.21
69598;SHT31;70000;51.176;-115.568;2024-03-23T02:53:58;-3.62;76.47
69598;SHT31;70000;51.176;-115.568;2024-03-23T02:56:26;-3.53;77.08
69598;SHT31;70000;51.176;-115.568;2024-03-23T02:59:03;-3.46;76.93
69598;SHT31;70000;51.176;-115.568;2024-03-23T03:01:31;-3.38;77.04
69598;SHT31;70000;51.176;-115.568;2024-03-23T03:04:00;-3.28;77.33
69598;SHT31;70000;51.176;-115.568;2024-03-23T03:06:30;-3.21;77.13
69598;SHT31;70000;51.176;-115.568;2024-03-23T03:11:29;-3.19;78.34
69598;SHT31;70000;51.176;-115.568;2024-03-23T03:13:57;-3.24;78.50
69598;SHT31;70000;51.176;-115.568;2024-03-23T03:16:27;-3.26;78.45
69598;SHT31;70000;51.176;-115.568;2024-03-23T03:18:56;-3.32;77.78
69598;SHT31;70000;51.176;-115.568;2024-03-23T03:21:26;-3.37;77.52
69598;SHT31;70000;51.176;-115.568;2024-03-23T03:23:55;-3.39;76.86
69598;SHT31;70000;51.176;-115.568;2024-03-23T03:26:23;-3.46;75.97
69598;SHT31;70000;51.176;-115.568;2024-03-23T03:28:56;-3.49;75.99
69598;SHT31;70000;51.176;-115.568;2024-03-23T03:31:24;-3.52;75.12
69598;SHT31;70000;51.176;-115.568;2024-03-23T03:33:52;-3.56;74.60
69598;SHT31;70000;51.176;-115.568;2024-03-23T03:36:23;-3.61;74.09
69598;SHT31;70000;51.176;-115.568;2024-03-23T03:38:52;-3.65;73.94
69598;SHT31;70000;51.176;-115.568;2024-03-23T03:41:20;-3.68;73.99
69598;SHT31;70000;51.176;-115.568;2024-03-23T03:43:49;-3.70;74.39
69598;SHT31;70000;51.176;-115.568;2024-03-23T03:46:17;-3.73;74.37
69598;SHT31;70000;51.176;-115.568;2024-03-23T03:48:46;-3.82;73.77
69598;SHT31;70000;51.176;-115.568;2024-03-23T03:51:15;-3.89;73.53
69598;SHT31;70000;51.176;-115.568;2024-03-23T03:53:43;-3.90;73.72
69598;SHT31;70000;51.176;-115.568;2024-03-23T03:56:12;-3.94;73.33
69598;SHT31;70000;51.176;-115.568;2024-03-23T03:58:41;-3.95;73.42
69598;SHT31;70000;51.176;-115.568;2024-03-23T04:01:09;-3.99;73.15
69598;SHT31;70000;51.176;-115.568;2024-03-23T04:03:39;-4.05;72.91
69598;SHT31;70000;51.176;-115.568;2024-03-23T04:06:11;-4.09;73.13
69598;SHT31;70000;51.176;-115.568;2024-03-23T04:08:48;-4.13;72.80
69598;SHT31;70000;51.176;-115.568;2024-03-23T04:11:20;-4.20;72.92
69598;SHT31;70000;51.176;-115.568;2024-03-23T04:13:50;-4.21;73.12
69598;SHT31;70000;51.176;-115.568;2024-03-23T04:16:29;-4.22;73.23
69598;SHT31;70000;51.176;-115.568;2024-03-23T04:19:04;-4.26;72.74
69598;SHT31;70000;51.176;-115.568;2024-03-23T04:21:35;-4.34;72.62
69598;SHT31;70000;51.176;-115.568;2024-03-23T04:24:11;-4.34;72.88
69598;SHT31;70000;51.176;-115.568;2024-03-23T04:26:43;-4.36;72.86
69598;SHT31;70000;51.176;-115.568;2024-03-23T04:29:14;-4.42;72.67
69598;SHT31;70000;51.176;-115.568;2024-03-23T04:31:44;-4.50;72.62
69598;SHT31;70000;51.176;-115.568;2024-03-23T04:34:16;-4.54;72.71
69598;SHT31;70000;51.176;-115.568;2024-03-23T04:36:46;-4.58;72.95
69598;SHT31;70000;51.176;-115.568;2024-03-23T04:39:16;-4.64;73.07
69598;SHT31;70000;51.176;-115.568;2024-03-23T04:41:47;-4.71;73.19
69598;SHT31;70000;51.176;-115.568;2024-03-23T04:44:17;-4.72;73.64
69598;SHT31;70000;51.176;-115.568;2024-03-23T04:46:53;-4.78;73.20
69598;SHT31;70000;51.176;-115.568;2024-03-23T04:49:21;-4.82;73.38
69598;SHT31;70000;51.176;-115.568;2024-03-23T04:51:50;-4.86;73.16
69598;SHT31;70000;51.176;-115.568;2024-03-23T04:54:19;-4.95;73.40
69598;SHT31;70000;51.176;-115.568;2024-03-23T04:56:47;-5.01;73.77
69598;SHT31;70000;51.176;-115.568;2024-03-23T04:59:16;-5.01;73.91
69598;SHT31;70000;51.176;-115.568;2024-03-23T05:01:44;-5.04;73.55
69598;SHT31;70000;51.176;-115.568;2024-03-23T05:04:12;-5.09;73.47
69598;SHT31;70000;51.176;-115.568;2024-03-23T05:06:41;-5.13;73.49
69598;SHT31;70000;51.176;-115.568;2024-03-23T05:09:10;-5.15;73.51
69598;SHT31;70000;51.176;-115.568;2024-03-23T05:11:38;-5.19;73.65
69598;SHT31;70000;51.176;-115.568;2024-03-23T05:14:07;-5.24;73.78
69598;SHT31;70000;51.176;-115.568;2024-03-23T05:16:36;-5.30;73.40
69598;SHT31;70000;51.176;-115.568;2024-03-23T05:19:04;-5.38;73.40
69598;SHT31;70000;51.176;-115.568;2024-03-23T05:21:33;-5.39;73.82
69598;SHT31;70000;51.176;-115.568;2024-03-23T05:24:01;-5.39;74.00
69598;SHT31;70000;51.176;-115.568;2024-03-23T05:26:33;-5.43;73.86
69598;SHT31;70000;51.176;-115.568;2024-03-23T05:29:04;-5.44;74.05
69598;SHT31;70000;51.176;-115.568;2024-03-23T05:31:37;-5.43;74.20
69598;SHT31;70000;51.176;-115.568;2024-03-23T05:34:08;-5.41;74.37
69598;SHT31;70000;51.176;-115.568;2024-03-23T05:36:37;-5.40;74.28
69598;SHT31;70000;51.176;-115.568;2024-03-23T05:39:05;-5.42;74.15
69598;SHT31;70000;51.176;-115.568;2024-03-23T05:41:33;-5.42;74.24
69598;SHT31;70000;51.176;-115.568;2024-03-23T05:44:03;-5.42;74.21
69598;SHT31;70000;51.176;-115.568;2024-03-23T05:46:31;-5.41;74.43
69598;SHT31;70000;51.176;-115.568;2024-03-23T05:49:00;-5.38;74.36
69598;SHT31;70000;51.176;-115.568;2024-03-23T05:51:30;-5.37;74.18
69598;SHT31;70000;51.176;-115.568;2024-03-23T05:53:58;-5.38;74.23
69598;SHT31;70000;51.176;-115.568;2024-03-23T05:56:28;-5.38;74.12
69598;SHT31;70000;51.176;-115.568;2024-03-23T05:58:56;-5.35;74.30
69598;SHT31;70000;51.176;-115.568;2024-03-23T06:01:25;-5.33;74.14
69598;SHT31;70000;51.176;-115.568;2024-03-23T06:03:55;-5.32;74.10
69598;SHT31;70000;51.176;-115.568;2024-03-23T06:06:24;-5.34;73.84
69598;SHT31;70000;51.176;-115.568;2024-03-23T06:08:52;-5.34;73.93
69598;SHT31;70000;51.176;-115.568;2024-03-23T06:11:21;-5.36;73.68
69598;SHT31;70000;51.176;-115.568;2024-03-23T06:13:49;-5.36;73.77
69598;SHT31;70000;51.176;-115.568;2024-03-23T06:16:18;-5.36;73.70
69598;SHT31;70000;51.176;-115.568;2024-03-23T06:18:50;-5.39;73.42
69598;SHT31;70000;51.176;-115.568;2024-03-23T06:21:19;-5.42;73.24
69598;SHT31;70000;51.176;-115.568;2024-03-23T06:23:53;-5.43;73.48
69598;SHT31;70000;51.176;-115.568;2024-03-23T06:26:25;-5.38;73.83
69598;SHT31;70000;51.176;-115.568;2024-03-23T06:28:53;-5.38;73.56
69598;SHT31;70000;51.176;-115.568;2024-03-23T06:31:23;-5.39;73.45
69598;SHT31;70000;51.176;-115.568;2024-03-23T06:33:51;-5.38;73.54
69598;SHT31;70000;51.176;-115.568;2024-03-23T06:36:19;-5.37;73.74
69598;SHT31;70000;51.176;-115.568;2024-03-23T06:38:50;-5.36;73.67
69598;SHT31;70000;51.176;-115.568;2024-03-23T06:41:19;-5.36;73.75
69598;SHT31;70000;51.176;-115.568;2024-03-23T06:43:47;-5.39;73.45
69598;SHT31;70000;51.176;-115.568;2024-03-23T06:46:18;-5.44;73.23
69598;SHT31;70000;51.176;-115.568;2024-03-23T06:48:49;-5.49;73.42
69598;SHT31;70000;51.176;-115.568;2024-03-23T06:51:18;-5.51;73.54
69598;SHT31;70000;51.176;-115.568;2024-03-23T06:53:46;-5.51;73.81
69598;SHT31;70000;51.176;-115.568;2024-03-23T06:56:16;-5.48;73.88
69598;SHT31;70000;51.176;-115.568;2024-03-23T06:58:45;-5.50;73.55
69598;SHT31;70000;51.176;-115.568;2024-03-23T07:01:13;-5.52;73.54
69598;SHT31;70000;51.176;-115.568;2024-03-23T07:03:41;-5.49;73.90
69598;SHT31;70000;51.176;-115.568;2024-03-23T07:06:10;-5.45;74.00
69598;SHT31;70000;51.176;-115.568;2024-03-23T07:08:38;-5.43;73.74
69598;SHT31;70000;51.176;-115.568;2024-03-23T07:11:07;-5.42;73.79
69598;SHT31;70000;51.176;-115.568;2024-03-23T07:13:36;-5.41;73.82
69598;SHT31;70000;51.176;-115.568;2024-03-23T07:16:04;-5.42;73.53
69598;SHT31;70000;51.176;-115.568;2024-03-23T07:18:33;-5.40;73.67
69598;SHT31;70000;51.176;-115.568;2024-03-23T07:21:01;-5.39;73.69
69598;SHT31;70000;51.176;-115.568;2024-03-23T07:23:30;-5.40;73.50
69598;SHT31;70000;51.176;-115.568;2024-03-23T07:26:05;-5.39;73.83
69598;SHT31;70000;51.176;-115.568;2024-03-23T07:28:35;-5.37;73.90
69598;SHT31;70000;51.176;-115.568;2024-03-23T07:31:08;-5.36;73.89
69598;SHT31;70000;51.176;-115.568;2024-03-23T07:33:42;-5.37;73.86
69598;SHT31;70000;51.176;-115.568;2024-03-23T07:36:12;-5.43;73.84
69598;SHT31;70000;51.176;-115.568;2024-03-23T07:38:41;-5.49;73.75
69598;SHT31;70000;51.176;-115.568;2024-03-23T07:41:24;-5.59;73.73
69598;SHT31;70000;51.176;-115.568;2024-03-23T07:43:54;-5.62;74.19
69598;SHT31;70000;51.176;-115.568;2024-03-23T07:46:22;-5.61;74.51
69598;SHT31;70000;51.176;-115.568;2024-03-23T07:48:52;-5.61;74.48
69598;SHT31;70000;51.176;-115.568;2024-03-23T07:51:21;-5.63;74.41
69598;SHT31;70000;51.176;-115.568;2024-03-23T07:53:50;-5.69;74.44
69598;SHT31;70000;51.176;-115.568;2024-03-23T07:56:20;-5.72;74.59
69598;SHT31;70000;51.176;-115.568;2024-03-23T07:58:50;-5.75;74.81
69598;SHT31;70000;51.176;-115.568;2024-03-23T08:01:19;-5.76;74.94
69598;SHT31;70000;51.176;-115.568;2024-03-23T08:03:49;-5.78;75.81
69598;SHT31;70000;51.176;-115.568;2024-03-23T08:06:21;-5.79;76.40
69598;SHT31;70000;51.176;-115.568;2024-03-23T08:08:51;-5.82;76.50
69598;SHT31;70000;51.176;-115.568;2024-03-23T08:11:30;-5.86;76.51
69598;SHT31;70000;51.176;-115.568;2024-03-23T08:14:01;-5.89;76.64
69598;SHT31;70000;51.176;-115.568;2024-03-23T08:16:31;-5.89;76.70
69598;SHT31;70000;51.176;-115.568;2024-03-23T08:19:02;-5.94;76.54
69598;SHT31;70000;51.176;-115.568;2024-03-23T08:21:31;-5.98;76.43
69598;SHT31;70000;51.176;-115.568;2024-03-23T08:23:59;-6.04;76.35
69598;SHT31;70000;51.176;-115.568;2024-03-23T08:26:28;-6.07;76.35
69598;SHT31;70000;51.176;-115.568;2024-03-23T08:28:57;-6.15;76.00
69598;SHT31;70000;51.176;-115.568;2024-03-23T08:31:25;-6.18;75.90
69598;SHT31;70000;51.176;-115.568;2024-03-23T08:33:55;-6.20;75.78
69598;SHT31;70000;51.176;-115.568;2024-03-23T08:36:23;-6.21;75.61
69598;SHT31;70000;51.176;-115.568;2024-03-23T08:38:51;-6.21;75.69
69598;SHT31;70000;51.176;-115.568;2024-03-23T08:41:22;-6.20;75.71
69598;SHT31;70000;51.176;-115.568;2024-03-23T08:43:51;-6.18;75.73
69598;SHT31;70000;51.176;-115.568;2024-03-23T08:46:20;-6.17;75.53
69598;SHT31;70000;51.176;-115.568;2024-03-23T08:53:22;-6.25;75.06
69598;SHT31;70000;51.176;-115.568;2024-03-23T08:55:54;-6.29;75.07
69598;SHT31;70000;51.176;-115.568;2024-03-23T08:58:24;-6.32;75.02
69598;SHT31;70000;51.176;-115.568;2024-03-23T09:01:02;-6.36;75.03
69598;SHT31;70000;51.176;-115.568;2024-03-23T09:03:36;-6.36;75.25
69598;SHT31;70000;51.176;-115.568;2024-03-23T09:06:12;-6.39;75.13
69598;SHT31;70000;51.176;-115.568;2024-03-23T09:08:42;-6.41;75.10
69598;SHT31;70000;51.176;-115.568;2024-03-23T09:11:32;-6.47;74.99
69598;SHT31;70000;51.176;-115.568;2024-03-23T09:14:08;-6.50;75.17
69598;SHT31;70000;51.176;-115.568;2024-03-23T09:16:40;-6.57;74.88
69598;SHT31;70000;51.176;-115.568;2024-03-23T09:19:13;-6.63;75.07
69598;SHT31;70000;51.176;-115.568;2024-03-23T09:21:42;-6.64;75.24
69598;SHT31;70000;51.176;-115.568;2024-03-23T09:24:11;-6.68;75.12
69598;SHT31;70000;51.176;-115.568;2024-03-23T09:26:39;-6.73;75.22
69598;SHT31;70000;51.176;-115.568;2024-03-23T09:29:08;-6.80;75.46
69598;SHT31;70000;51.176;-115.568;2024-03-23T09:31:36;-6.82;75.72
69598;SHT31;70000;51.176;-115.568;2024-03-23T09:34:05;-6.85;75.84
69598;SHT31;70000;51.176;-115.568;2024-03-23T09:36:34;-6.86;75.95
69598;SHT31;70000;51.176;-115.568;2024-03-23T09:39:02;-6.90;75.77
69598;SHT31;70000;51.176;-115.568;2024-03-23T09:41:32;-6.89;75.99
69598;SHT31;70000;51.176;-115.568;2024-03-23T09:44:01;-6.89;75.86
69598;SHT31;70000;51.176;-115.568;2024-03-23T09:46:31;-6.86;75.95
69598;SHT31;70000;51.176;-115.568;2024-03-23T09:49:03;-6.86;75.77
69598;SHT31;70000;51.176;-115.568;2024-03-23T09:51:36;-6.88;75.65
69598;SHT31;70000;51.176;-115.568;2024-03-23T09:54:09;-6.89;75.72
69598;SHT31;70000;51.176;-115.568;2024-03-23T09:56:47;-6.88;75.72
69598;SHT31;70000;51.176;-115.568;2024-03-23T09:59:15;-6.90;75.65
69598;SHT31;70000;51.176;-115.568;2024-03-23T10:01:44;-6.92;75.61
69598;SHT31;70000;51.176;-115.568;2024-03-23T10:04:35;-6.91;75.78
69598;SHT31;70000;51.176;-115.568;2024-03-23T10:07:14;-6.90;75.69
69598;SHT31;70000;51.176;-115.568;2024-03-23T10:09:47;-6.93;75.59
69598;SHT31;70000;51.176;-115.568;2024-03-23T10:12:18;-6.97;75.49
69598;SHT31;70000;51.176;-115.568;2024-03-23T10:14:47;-6.96;75.63
69598;SHT31;70000;51.176;-115.568;2024-03-23T10:17:20;-6.97;75.63
69598;SHT31;70000;51.176;-115.568;2024-03-23T10:20:32;-6.95;75.68
69598;SHT31;70000;51.176;-115.568;2024-03-23T10:23:03;-6.95;75.60
69598;SHT31;70000;51.176;-115.568;2024-03-23T10:25:32;-6.97;75.54
69598;SHT31;70000;51.176;-115.568;2024-03-23T10:28:00;-6.97;75.69
69598;SHT31;70000;51.176;-115.568;2024-03-23T10:30:31;-6.95;75.70
69598;SHT31;70000;51.176;-115.568;2024-03-23T10:36:01;-6.98;75.28
69598;SHT31;70000;51.176;-115.568;2024-03-23T10:41:42;-6.98;75.37
69598;SHT31;70000;51.176;-115.568;2024-03-23T10:44:13;-6.97;75.43
69598;SHT31;70000;51.176;-115.568;2024-03-23T10:46:45;-6.98;75.17
69598;SHT31;70000;51.176;-115.568;2024-03-23T10:49:14;-7.01;75.01
69598;SHT31;70000;51.176;-115.568;2024-03-23T10:51:43;-7.06;74.84
69598;SHT31;70000;51.176;-115.568;2024-03-23T10:54:16;-7.09;74.95
69598;SHT31;70000;51.176;-115.568;2024-03-23T10:56:45;-7.10;74.99
69598;SHT31;70000;51.176;-115.568;2024-03-23T10:59:41;-7.11;75.00
69598;SHT31;70000;51.176;-115.568;2024-03-23T11:02:19;-7.11;75.04
69598;SHT31;70000;51.176;-115.568;2024-03-23T11:04:49;-7.09;75.07
69598;SHT31;70000;51.176;-115.568;2024-03-23T11:09:53;-7.10;75.04
69598;SHT31;70000;51.176;-115.568;2024-03-23T11:15:04;-7.07;75.10
69598;SHT31;70000;51.176;-115.568;2024-03-23T11:17:39;-7.07;75.15
69598;SHT31;70000;51.176;-115.568;2024-03-23T11:20:09;-7.09;74.95
69598;SHT31;70000;51.176;-115.568;2024-03-23T11:22:46;-7.12;75.04
69598;SHT31;70000;51.176;-115.568;2024-03-23T11:25:20;-7.14;75.08
69598;SHT31;70000;51.176;-115.568;2024-03-23T11:27:54;-7.14;75.13
69598;SHT31;70000;51.176;-115.568;2024-03-23T11:30:41;-7.14;75.18
69598;SHT31;70000;51.176;-115.568;2024-03-23T11:33:10;-7.11;75.27
69598;SHT31;70000;51.176;-115.568;2024-03-23T11:35:40;-7.10;75.18
69598;SHT31;70000;51.176;-115.568;2024-03-23T11:38:13;-7.09;75.11
69598;SHT31;70000;51.176;-115.568;2024-03-23T11:41:27;-7.07;75.11
69598;SHT31;70000;51.176;-115.568;2024-03-23T11:43:56;-7.07;75.19
69598;SHT31;70000;51.176;-115.568;2024-03-23T11:46:25;-7.08;75.06
69598;SHT31;70000;51.176;-115.568;2024-03-23T11:48:54;-7.11;74.98
69598;SHT31;70000;51.176;-115.568;2024-03-23T11:52:02;-7.09;75.04
69598;SHT31;70000;51.176;-115.568;2024-03-23T11:54:31;-7.11;75.09
69598;SHT31;70000;51.176;-115.568;2024-03-23T11:57:01;-7.11;75.19
69598;SHT31;70000;51.176;-115.568;2024-03-23T12:02:48;-7.09;75.22
69598;SHT31;70000;51.176;-115.568;2024-03-23T12:05:18;-7.10;75.11
69598;SHT31;70000;51.176;-115.568;2024-03-23T12:07:54;-7.10;75.26
69598;SHT31;70000;51.176;-115.568;2024-03-23T12:10:46;-7.08;75.21
69598;SHT31;70000;51.176;-115.568;2024-03-23T12:13:21;-7.08;75.31
69598;SHT31;70000;51.176;-115.568;2024-03-23T12:15:50;-7.06;75.35
69598;SHT31;70000;51.176;-115.568;2024-03-23T12:18:25;-7.05;75.28
69598;SHT31;70000;51.176;-115.568;2024-03-23T12:20:53;-7.07;75.27
69598;SHT31;70000;51.176;-115.568;2024-03-23T12:23:22;-7.06;75.33
69598;SHT31;70000;51.176;-115.568;2024-03-23T12:25:51;-7.06;75.30
69598;SHT31;70000;51.176;-115.568;2024-03-23T12:28:20;-7.03;75.49
69598;SHT31;70000;51.176;-115.568;2024-03-23T12:30:49;-7.00;75.57
69598;SHT31;70000;51.176;-115.568;2024-03-23T12:33:42;-6.99;75.37
69598;SHT31;70000;51.176;-115.568;2024-03-23T12:36:13;-6.98;75.46
69598;SHT31;70000;51.176;-115.568;2024-03-23T12:38:42;-6.96;75.41
69598;SHT31;70000;51.176;-115.568;2024-03-23T12:41:12;-6.97;75.38
69598;SHT31;70000;51.176;-115.568;2024-03-23T12:43:40;-6.98;75.35
69598;SHT31;70000;51.176;-115.568;2024-03-23T12:46:09;-6.96;75.50
69598;SHT31;70000;51.176;-115.568;2024-03-23T12:48:39;-6.95;75.41
69598;SHT31;70000;51.176;-115.568;2024-03-23T12:51:09;-6.95;75.43
69598;SHT31;70000;51.176;-115.568;2024-03-23T12:53:59;-6.93;75.52
69598;SHT31;70000;51.176;-115.568;2024-03-23T12:56:28;-6.91;75.41
69598;SHT31;70000;51.176;-115.568;2024-03-23T12:58:58;-6.90;75.40
69598;SHT31;70000;51.176;-115.568;2024-03-23T13:01:28;-6.87;75.52
69598;SHT31;70000;51.176;-115.568;2024-03-23T13:03:56;-6.84;75.57
69598;SHT31;70000;51.176;-115.568;2024-03-23T13:06:27;-6.82;75.47
69598;SHT31;70000;51.176;-115.568;2024-03-23T13:09:01;-6.81;75.39
69598;SHT31;70000;51.176;-115.568;2024-03-23T13:11:31;-6.82;75.15
69598;SHT31;70000;51.176;-115.568;2024-03-23T13:14:00;-6.81;75.21
69598;SHT31;70000;51.176;-115.568;2024-03-23T13:16:31;-6.82;74.83
69598;SHT31;70000;51.176;-115.568;2024-03-23T13:19:01;-6.87;74.46
69598;SHT31;70000;51.176;-115.568;2024-03-23T13:21:33;-6.90;74.65
69598;SHT31;70000;51.176;-115.568;2024-03-23T13:24:02;-6.93;74.50
69598;SHT31;70000;51.176;-115.568;2024-03-23T13:26:32;-6.96;74.44
69598;SHT31;70000;51.176;-115.568;2024-03-23T13:29:01;-6.97;74.61
69598;SHT31;70000;51.176;-115.568;2024-03-23T13:31:30;-6.95;74.89
69598;SHT31;70000;51.176;-115.568;2024-03-23T13:34:01;-6.92;74.98
69598;SHT31;70000;51.176;-115.568;2024-03-23T13:36:30;-6.92;74.92
69598;SHT31;70000;51.176;-115.568;2024-03-23T13:38:59;-6.91;74.88
69598;SHT31;70000;51.176;-115.568;2024-03-23T13:41:28;-6.90;75.13
69598;SHT31;70000;51.176;-115.568;2024-03-23T13:43:57;-6.88;74.94
69598;SHT31;70000;51.176;-115.568;2024-03-23T13:46:26;-6.85;75.03
69598;SHT31;70000;51.176;-115.568;2024-03-23T13:48:55;-6.90;74.85
69598;SHT31;70000;51.176;-115.568;2024-03-23T13:51:24;-6.93;74.99
69598;SHT31;70000;51.176;-115.568;2024-03-23T13:53:54;-6.94;74.88
69598;SHT31;70000;51.176;-115.568;2024-03-23T13:56:24;-6.99;74.83
69598;SHT31;70000;51.176;-115.568;2024-03-23T13:58:54;-6.96;75.22
69598;SHT31;70000;51.176;-115.568;2024-03-23T14:01:25;-6.92;75.28
69598;SHT31;70000;51.176;-115.568;2024-03-23T14:03:54;-6.90;75.27
69598;SHT31;70000;51.176;-115.568;2024-03-23T14:06:24;-6.86;75.30
69598;SHT31;70000;51.176;-115.568;2024-03-23T14:08:52;-6.84;75.23
69598;SHT31;70000;51.176;-115.568;2024-03-23T14:11:21;-6.81;75.21
69598;SHT31;70000;51.176;-115.568;2024-03-23T14:13:50;-6.77;75.27
69598;SHT31;70000;51.176;-115.568;2024-03-23T14:16:22;-6.71;75.36
69598;SHT31;70000;51.176;-115.568;2024-03-23T14:18:51;-6.68;75.16
69598;SHT31;70000;51.176;-115.568;2024-03-23T14:21:20;-6.68;75.07
69598;SHT31;70000;51.176;-115.568;2024-03-23T14:23:49;-6.66;75.10
69598;SHT31;70000;51.176;-115.568;2024-03-23T14:26:18;-6.65;75.05
69598;SHT31;70000;51.176;-115.568;2024-03-23T14:28:48;-6.58;75.29
69598;SHT31;70000;51.176;-115.568;2024-03-23T14:31:19;-6.57;74.82
69598;SHT31;70000;51.176;-115.568;2024-03-23T14:33:49;-6.62;74.38
69598;SHT31;70000;51.176;-115.568;2024-03-23T14:36:18;-6.68;74.28
69598;SHT31;70000;51.176;-115.568;2024-03-23T14:38:47;-6.70;74.58
69598;SHT31;70000;51.176;-115.568;2024-03-23T14:41:17;-6.65;74.80
69598;SHT31;70000;51.176;-115.568;2024-03-23T14:43:47;-6.62;74.80
69598;SHT31;70000;51.176;-115.568;2024-03-23T14:46:18;-6.59;74.78
69598;SHT31;70000;51.176;-115.568;2024-03-23T14:48:47;-6.59;74.72
69598;SHT31;70000;51.176;-115.568;2024-03-23T14:51:16;-6.55;74.86
69598;SHT31;70000;51.176;-115.568;2024-03-23T14:53:45;-6.52;74.82
69598;SHT31;70000;51.176;-115.568;2024-03-23T14:56:15;-6.53;74.71
69598;SHT31;70000;51.176;-115.568;2024-03-23T14:58:45;-6.52;74.36
69598;SHT31;70000;51.176;-115.568;2024-03-23T15:01:15;-6.49;74.44
69598;SHT31;70000;51.176;-115.568;2024-03-23T15:03:44;-6.52;74.30
69598;SHT31;70000;51.176;-115.568;2024-03-23T15:06:14;-6.50;74.35
69598;SHT31;70000;51.176;-115.568;2024-03-23T15:08:43;-6.51;74.24
69598;SHT31;70000;51.176;-115.568;2024-03-23T15:11:12;-6.49;74.48
69598;SHT31;70000;51.176;-115.568;2024-03-23T15:13:41;-6.46;74.54
69598;SHT31;70000;51.176;-115.568;2024-03-23T15:16:10;-6.47;74.56
69598;SHT31;70000;51.176;-115.568;2024-03-23T15:18:39;-6.44;74.71
69598;SHT31;70000;51.176;-115.568;2024-03-23T15:21:08;-6.41;74.78
69598;SHT31;70000;51.176;-115.568;2024-03-23T15:23:45;-6.40;74.56
69598;SHT31;70000;51.176;-115.568;2024-03-23T15:26:14;-6.38;74.85
69598;SHT31;70000;51.176;-115.568;2024-03-23T15:28:47;-6.34;74.70
69598;SHT31;70000;51.176;-115.568;2024-03-23T15:31:25;-6.34;74.49
69598;SHT31;70000;51.176;-115.568;2024-03-23T15:33:55;-6.37;74.55
69598;SHT31;70000;51.176;-115.568;2024-03-23T15:36:23;-6.31;74.98
69598;SHT31;70000;51.176;-115.568;2024-03-23T15:41:47;-6.20;74.81
69598;SHT31;70000;51.176;-115.568;2024-03-23T15:44:16;-6.20;74.49
69598;SHT31;70000;51.176;-115.568;2024-03-23T15:46:45;-6.20;74.58
69598;SHT31;70000;51.176;-115.568;2024-03-23T15:49:14;-6.16;74.60
69598;SHT31;70000;51.176;-115.568;2024-03-23T15:51:43;-6.11;74.72
69598;SHT31;70000;51.176;-115.568;2024-03-23T15:54:13;-6.04;74.85
69598;SHT31;70000;51.176;-115.568;2024-03-23T15:56:42;-5.99;74.51
69598;SHT31;70000;51.176;-115.568;2024-03-23T15:59:11;-5.96;74.26
69598;SHT31;70000;51.176;-115.568;2024-03-23T16:01:40;-5.86;74.66
69598;SHT31;70000;51.176;-115.568;2024-03-23T16:04:12;-5.82;74.02
69598;SHT31;70000;51.176;-115.568;2024-03-23T16:06:41;-5.83;73.77
69598;SHT31;70000;51.176;-115.568;2024-03-23T16:09:15;-5.83;73.64
69598;SHT31;70000;51.176;-115.568;2024-03-23T16:11:46;-5.83;73.53
69598;SHT31;70000;51.176;-115.568;2024-03-23T16:14:14;-5.79;73.79
69598;SHT31;70000;51.176;-115.568;2024-03-23T16:16:43;-5.72;73.96
69598;SHT31;70000;51.176;-115.568;2024-03-23T16:19:17;-5.65;73.76
69598;SHT31;70000;51.176;-115.568;2024-03-23T16:21:49;-5.63;73.50
69598;SHT31;70000;51.176;-115.568;2024-03-23T16:24:18;-5.54;73.73
69598;SHT31;70000;51.176;-115.568;2024-03-23T16:26:50;-5.45;73.61
69598;SHT31;70000;51.176;-115.568;2024-03-23T16:29:19;-5.43;73.37
69598;SHT31;70000;51.176;-115.568;2024-03-23T16:31:52;-5.38;73.32
69598;SHT31;70000;51.176;-115.568;2024-03-23T16:34:22;-5.36;73.24